There are multiple Weather-warnings   Click here for more information


Meteo18 Weather Cam more information Meteo18 Weather Cam


warning for Thunderstorms more information blitzortung!


Rain radar more information rain snow radar


Visit our other weather sites:

Template documentation
and downloads

And another site



Weather Underground History page Text

Daily Summary for October 19, 2017 Units:  English    Metric   Both
« Previous Day
Next Day »
Daily Weekly Monthly Yearly Custom
  High: Low: Average:
Temperature: 71.1 °F 54 °F 61.9 °F
Dew Point: 57.6 °F 51.4 °F 54.9 °F
Humidity: 93 % 59 % 79 %
Wind Speed: 14 mph 0 mph 2.9 mph
Wind Gust: 17 mph - -
Wind:- - SSW
Pressure: 29.9 in 29.8 in -
Precipitation: 0 in    
Historical Graphs
 
 
Tabular Data for October 19, 2017
Time Temperature Dew Point Pressure Wind Wind Speed Wind Gust Humidity Rainfall Rate (Hourly)
00:02 57.4 °F 53.2 °F 29.9 in Calm   1 mph 86 % 0 in
00:07 57.6 °F 53.4 °F 29.9 in Calm   1 mph 86 % 0 in
00:12 57.6 °F 52.7 °F 29.9 in Calm   1 mph 84 % 0 in
00:17 57 °F 52.5 °F 29.9 in Calm   1 mph 85 % 0 in
00:22 57.2 °F 53.1 °F 29.9 in Calm   1 mph 86 % 0 in
00:32 57.7 °F 53.2 °F 29.9 in NNE 1 mph 1 mph 85 % 0 in
00:42 57.9 °F 53.1 °F 29.9 in Calm   1 mph 84 % 0 in
00:47 57.6 °F 52.7 °F 29.9 in Calm   1 mph 84 % 0 in
00:52 56.8 °F 52.3 °F 29.9 in Calm   1 mph 85 % 0 in
00:57 56.5 °F 52.7 °F 29.9 in Calm   1 mph 87 % 0 in
01:02 56.5 °F 52.9 °F 29.9 in Calm   1 mph 88 % 0 in
01:12 56.1 °F 52.9 °F 29.9 in Calm     89 % 0 in
01:17 56.1 °F 52.7 °F 29.9 in Calm   1 mph 88 % 0 in
01:22 55.9 °F 52.5 °F 29.9 in Calm   1 mph 88 % 0 in
01:32 56.7 °F 53.1 °F 29.9 in North 1 mph 2 mph 88 % 0 in
01:42 55.9 °F 52.2 °F 29.9 in NW 1 mph 2 mph 87 % 0 in
01:47 55.8 °F 52.5 °F 29.9 in NW 1 mph 1 mph 89 % 0 in
01:52 55.8 °F 52.5 °F 29.9 in Calm   1 mph 89 % 0 in
02:02 55.8 °F 52.3 °F 29.9 in Calm   1 mph 88 % 0 in
02:07 55.4 °F 52 °F 29.9 in Calm   1 mph 88 % 0 in
02:12 55.2 °F 52 °F 29.9 in Calm   1 mph 89 % 0 in
02:17 55.6 °F 52.7 °F 29.9 in Calm   1 mph 90 % 0 in
02:22 55.6 °F 52.3 °F 29.9 in Calm   1 mph 89 % 0 in
02:32 55 °F 51.8 °F 29.9 in Calm   1 mph 89 % 0 in
02:37 55 °F 51.8 °F 29.9 in Calm   1 mph 89 % 0 in
02:42 55.4 °F 52.5 °F 29.9 in North 1 mph 1 mph 90 % 0 in
02:47 55.8 °F 52.5 °F 29.9 in NNE 1 mph 2 mph 89 % 0 in
02:52 55.6 °F 52.2 °F 29.9 in Calm   2 mph 88 % 0 in
02:57 55 °F 51.6 °F 29.9 in Calm   2 mph 88 % 0 in
03:02 54.7 °F 51.4 °F 29.9 in Calm   2 mph 89 % 0 in
03:12 54.9 °F 52.3 °F 29.9 in Calm   1 mph 91 % 0 in
03:17 55 °F 52.2 °F 29.9 in Calm   1 mph 90 % 0 in
03:22 55.2 °F 52.3 °F 29.9 in Calm   1 mph 90 % 0 in
03:27 55 °F 51.6 °F 29.9 in Calm   1 mph 88 % 0 in
03:32 54.7 °F 51.4 °F 29.9 in Calm   1 mph 89 % 0 in
03:37 54.7 °F 51.8 °F 29.9 in Calm   1 mph 90 % 0 in
03:42 54.9 °F 52 °F 29.9 in Calm   1 mph 90 % 0 in
03:47 55 °F 52.2 °F 29.9 in North 1 mph 2 mph 90 % 0 in
03:52 55.2 °F 52.3 °F 29.9 in Calm   2 mph 90 % 0 in
04:02 55 °F 51.8 °F 29.9 in Calm   2 mph 89 % 0 in
04:12 54 °F 51.4 °F 29.9 in WNW 1 mph 2 mph 91 % 0 in
04:17 54.1 °F 51.8 °F 29.9 in Calm   2 mph 92 % 0 in
04:22 54.7 °F 52.7 °F 29.9 in Calm   2 mph 93 % 0 in
04:32 55.8 °F 52.9 °F 29.9 in North 1 mph 1 mph 90 % 0 in
04:37 55.6 °F 51.8 °F 29.9 in Calm   1 mph 87 % 0 in
04:42 55.2 °F 52 °F 29.9 in WNW 1 mph 1 mph 89 % 0 in
04:47 54.7 °F 51.8 °F 29.9 in Calm   1 mph 90 % 0 in
04:52 55.2 °F 52.7 °F 29.9 in Calm   1 mph 91 % 0 in
04:57 55.2 °F 52.3 °F 29.9 in Calm   1 mph 90 % 0 in
05:02 55 °F 52.2 °F 29.9 in Calm   1 mph 90 % 0 in
05:12 55 °F 52.2 °F 29.9 in Calm   1 mph 90 % 0 in
05:22 54.7 °F 52.2 °F 29.9 in Calm     91 % 0 in
05:32 54.7 °F 52.3 °F 29.9 in Calm     92 % 0 in
05:37 55 °F 52.7 °F 29.8 in Calm     92 % 0 in
05:42 55.2 °F 52.9 °F 29.8 in Calm     92 % 0 in
05:47 55.6 °F 53.1 °F 29.8 in Calm     91 % 0 in
05:52 55.8 °F 52.9 °F 29.8 in Calm     90 % 0 in
05:57 55.2 °F 52 °F 29.8 in Calm     89 % 0 in
06:02 54.7 °F 51.8 °F 29.8 in Calm     90 % 0 in
06:07 55 °F 52.7 °F 29.8 in Calm     92 % 0 in
06:12 55 °F 52.5 °F 29.8 in Calm     91 % 0 in
06:17 55.2 °F 52.9 °F 29.8 in Calm     92 % 0 in
06:22 55.4 °F 53.1 °F 29.8 in Calm     92 % 0 in
06:32 55.9 °F 53.1 °F 29.8 in Calm     90 % 0 in
06:37 56.1 °F 53.2 °F 29.9 in Calm     90 % 0 in
06:42 55.6 °F 52.3 °F 29.9 in Calm     89 % 0 in
06:47 55.2 °F 52.7 °F 29.9 in Calm     91 % 0 in
06:57 55.8 °F 53.4 °F 29.9 in Calm     92 % 0 in
07:02 56.1 °F 53.8 °F 29.9 in Calm     92 % 0 in
07:12 56.8 °F 54 °F 29.9 in Calm     90 % 0 in
07:17 56.8 °F 54 °F 29.9 in Calm     90 % 0 in
07:22 56.8 °F 54 °F 29.9 in Calm     90 % 0 in
07:27 57 °F 53.8 °F 29.9 in Calm     89 % 0 in
07:32 57 °F 53.8 °F 29.9 in Calm     89 % 0 in
07:37 57 °F 53.8 °F 29.9 in Calm     89 % 0 in
07:42 57 °F 53.8 °F 29.9 in Calm     89 % 0 in
07:52 56.8 °F 53.6 °F 29.9 in Calm     89 % 0 in
07:57 57 °F 54.1 °F 29.9 in Calm     90 % 0 in
08:02 57.2 °F 54 °F 29.9 in Calm     89 % 0 in
08:12 57.6 °F 54.3 °F 29.9 in Calm     89 % 0 in
08:17 57.6 °F 54 °F 29.9 in Calm     88 % 0 in
08:22 57.6 °F 54.3 °F 29.9 in Calm     89 % 0 in
08:32 57.7 °F 54.1 °F 29.9 in Calm   1 mph 88 % 0 in
08:37 57.6 °F 54 °F 29.9 in Calm   1 mph 88 % 0 in
08:42 57.7 °F 54.5 °F 29.9 in Calm   1 mph 89 % 0 in
08:47 57.9 °F 54.3 °F 29.9 in Calm   2 mph 88 % 0 in
08:52 57.9 °F 54.3 °F 29.9 in Calm   2 mph 88 % 0 in
08:57 57.7 °F 54.1 °F 29.9 in Calm   2 mph 88 % 0 in
09:02 57.9 °F 54.3 °F 29.9 in Calm   1 mph 88 % 0 in
09:07 57.9 °F 54.3 °F 29.9 in Calm   2 mph 88 % 0 in
09:17 58.3 °F 54.7 °F 29.9 in Calm   2 mph 88 % 0 in
09:22 58.5 °F 54.9 °F 29.9 in Calm   2 mph 88 % 0 in
09:32 58.8 °F 55.2 °F 29.9 in Calm   2 mph 88 % 0 in
09:37 59 °F 55.4 °F 29.9 in SW 1 mph 4 mph 88 % 0 in
09:42 59.4 °F 55.4 °F 29.9 in SSW 4 mph 4 mph 87 % 0 in
09:47 59.5 °F 55.4 °F 29.9 in SSW 2 mph 4 mph 86 % 0 in
09:52 59.9 °F 55.4 °F 29.9 in Calm   5 mph 85 % 0 in
09:57 60.1 °F 55.6 °F 29.9 in SSW 2 mph 5 mph 85 % 0 in
10:02 60.3 °F 55.8 °F 29.9 in SW 2 mph 5 mph 85 % 0 in
10:12 60.6 °F 55.8 °F 29.9 in Calm   5 mph 84 % 0 in
10:17 60.8 °F 55.9 °F 29.9 in Calm   4 mph 84 % 0 in
10:22 61.2 °F 55.9 °F 29.9 in SSW 1 mph 4 mph 83 % 0 in
10:32 62.1 °F 56.1 °F 29.9 in SSW 1 mph 4 mph 81 % 0 in
10:37 62.2 °F 56.3 °F 29.9 in Calm   3 mph 81 % 0 in
10:42 62.8 °F 56.5 °F 29.9 in Calm   4 mph 80 % 0 in
10:52 63.1 °F 56.5 °F 29.9 in SW 1 mph 5 mph 79 % 0 in
10:57 63.3 °F 56.3 °F 29.9 in SW 3 mph 5 mph 78 % 0 in
11:02 64 °F 57.4 °F 29.9 in SW 3 mph 5 mph 79 % 0 in
11:07 64.8 °F 57 °F 29.9 in SSW 2 mph 5 mph 76 % 0 in
11:12 64.9 °F 56.8 °F 29.9 in SSW 3 mph 5 mph 75 % 0 in
11:17 65.5 °F 57.4 °F 29.9 in SW 4 mph 8 mph 75 % 0 in
11:22 65.8 °F 57.4 °F 29.9 in SE 2 mph 8 mph 74 % 0 in
11:27 66 °F 57.2 °F 29.9 in SW 3 mph 9 mph 73 % 0 in
11:32 66.2 °F 57.2 °F 29.9 in SW 3 mph 9 mph 73 % 0 in
11:42 66.9 °F 57.2 °F 29.9 in SE 3 mph 9 mph 71 % 0 in
11:52 68.2 °F 57.6 °F 29.9 in SSW 1 mph 9 mph 69 % 0 in
11:57 68.2 °F 56.8 °F 29.9 in South 3 mph 8 mph 67 % 0 in
12:02 68.2 °F 56.8 °F 29.9 in SSW 5 mph 8 mph 67 % 0 in
12:12 68.7 °F 57.4 °F 29.9 in SSW 5 mph 9 mph 67 % 0 in
12:17 68.9 °F 56.7 °F 29.9 in SW 2 mph 9 mph 65 % 0 in
12:22 68.9 °F 56.7 °F 29.9 in SSW 4 mph 9 mph 65 % 0 in
12:32 68.9 °F 57 °F 29.9 in SSW 6 mph 10 mph 66 % 0 in
12:42 69.3 °F 56.5 °F 29.9 in SSW 4 mph 9 mph 64 % 0 in
12:52 69.3 °F 56.5 °F 29.9 in SSW 2 mph 11 mph 64 % 0 in
12:57 68.9 °F 56.7 °F 29.9 in South 4 mph 8 mph 65 % 0 in
13:02 68.5 °F 55.9 °F 29.9 in SSW 2 mph 8 mph 64 % 0 in
13:12 68.2 °F 55.9 °F 29.9 in SSW 3 mph 8 mph 65 % 0 in
13:17 67.8 °F 55.6 °F 29.9 in SE 3 mph 8 mph 65 % 0 in
13:22 68 °F 55.4 °F 29.9 in SSW 6 mph 8 mph 64 % 0 in
13:32 68.2 °F 55.6 °F 29.9 in SSW 4 mph 9 mph 64 % 0 in
13:42 68.7 °F 55.6 °F 29.9 in SSE 2 mph 9 mph 63 % 0 in
13:47 69.1 °F 56.5 °F 29.9 in East 4 mph 9 mph 64 % 0 in
13:52 69.3 °F 55.8 °F 29.9 in South 2 mph 9 mph 62 % 0 in
14:02 69.4 °F 55.9 °F 29.9 in SSW 6 mph 8 mph 62 % 0 in
14:07 69.6 °F 55.9 °F 29.9 in SSW 4 mph 8 mph 62 % 0 in
14:12 70.3 °F 56.7 °F 29.9 in SSW 1 mph 8 mph 62 % 0 in
14:17 70.9 °F 56.3 °F 29.8 in SSE 7 mph 9 mph 60 % 0 in
14:22 71.1 °F 55.9 °F 29.8 in South 3 mph 9 mph 59 % 0 in
14:27 71.1 °F 55.9 °F 29.8 in SSW 2 mph 9 mph 59 % 0 in
14:32 70.9 °F 55.8 °F 29.8 in South 7 mph 10 mph 59 % 0 in
14:37 70.5 °F 55.9 °F 29.8 in SE 4 mph 9 mph 60 % 0 in
14:42 70.2 °F 55.6 °F 29.8 in SSW 3 mph 9 mph 60 % 0 in
14:47 70 °F 55.4 °F 29.8 in ESE 5 mph 10 mph 60 % 0 in
14:52 69.8 °F 55.8 °F 29.8 in SW 5 mph 10 mph 61 % 0 in
14:57 69.6 °F 55 °F 29.8 in SSE 1 mph 10 mph 60 % 0 in
15:07 69.4 °F 55.9 °F 29.8 in SE 3 mph 8 mph 62 % 0 in
15:12 69.4 °F 56.3 °F 29.8 in SE 4 mph 6 mph 63 % 0 in
15:17 69.4 °F 55.9 °F 29.8 in SSW 1 mph 6 mph 62 % 0 in
15:22 69.4 °F 55.9 °F 29.8 in SE 3 mph 6 mph 62 % 0 in
15:32 69.1 °F 55.9 °F 29.8 in SSE 1 mph 8 mph 63 % 0 in
15:37 68.7 °F 55.6 °F 29.8 in SSW 2 mph 8 mph 63 % 0 in
15:42 68.7 °F 56.1 °F 29.8 in SSE 3 mph 7 mph 64 % 0 in
15:47 68.5 °F 55.4 °F 29.8 in Calm   7 mph 63 % 0 in
15:52 68.4 °F 55.2 °F 29.8 in SSW 3 mph 7 mph 63 % 0 in
15:57 68.4 °F 55.2 °F 29.8 in SSE 3 mph 8 mph 63 % 0 in
16:02 68.5 °F 55.4 °F 29.8 in SSW 3 mph 8 mph 63 % 0 in
16:07 68.7 °F 55.6 °F 29.8 in South 5 mph 8 mph 63 % 0 in
16:12 68.5 °F 55.4 °F 29.8 in SSW 3 mph 8 mph 63 % 0 in
16:17 68.7 °F 56.1 °F 29.8 in SW 4 mph 6 mph 64 % 0 in
16:22 68.7 °F 56.1 °F 29.8 in SSW 3 mph 6 mph 64 % 0 in
16:27 68.7 °F 56.1 °F 29.8 in South 6 mph 8 mph 64 % 0 in
16:32 68.7 °F 56.1 °F 29.8 in South 3 mph 8 mph 64 % 0 in
16:37 68.5 °F 56.3 °F 29.8 in SW 2 mph 8 mph 65 % 0 in
16:42 68.4 °F 56.1 °F 29.8 in SSW 3 mph 7 mph 65 % 0 in
16:47 68.4 °F 56.1 °F 29.8 in SSW 3 mph 5 mph 65 % 0 in
16:52 68.2 °F 55.9 °F 29.8 in SSW 2 mph 5 mph 65 % 0 in
16:57 68.2 °F 56.3 °F 29.8 in SSW 4 mph 5 mph 66 % 0 in
17:02 67.8 °F 56.1 °F 29.8 in SSW 3 mph 5 mph 66 % 0 in
17:07 67.8 °F 56.1 °F 29.8 in SSW 3 mph 5 mph 66 % 0 in
17:12 67.6 °F 56.3 °F 29.8 in SW 4 mph 5 mph 67 % 0 in
17:17 67.6 °F 56.3 °F 29.8 in SW 3 mph 7 mph 67 % 0 in
17:22 67.8 °F 56.1 °F 29.8 in SW 4 mph 7 mph 66 % 0 in
17:27 67.8 °F 56.5 °F 29.8 in SW 5 mph 11 mph 67 % 0 in
17:32 67.8 °F 56.5 °F 29.8 in SW 7 mph 11 mph 67 % 0 in
17:37 67.6 °F 56.7 °F 29.8 in SW 6 mph 12 mph 68 % 0 in
17:42 66.7 °F 57.4 °F 29.8 in WSW 5 mph 13 mph 72 % 0 in
17:47 66 °F 57.2 °F 29.8 in SW 7 mph 15 mph 73 % 0 in
17:52 65.7 °F 57.2 °F 29.8 in WSW 14 mph 15 mph 74 % 0 in
17:57 65.3 °F 57.2 °F 29.8 in WSW 6 mph 17 mph 75 % 0 in
18:02 65.1 °F 57 °F 29.9 in SSW 8 mph 17 mph 75 % 0 in
18:07 64.9 °F 56.8 °F 29.8 in WSW 10 mph 17 mph 75 % 0 in
18:12 64.9 °F 56.8 °F 29.9 in SW 8 mph 13 mph 75 % 0 in
18:17 64.9 °F 56.8 °F 29.8 in WSW 7 mph 13 mph 75 % 0 in
18:22 64.8 °F 56.7 °F 29.9 in SSW 4 mph 13 mph 75 % 0 in
18:32 64.8 °F 57 °F 29.9 in SW 10 mph 13 mph 76 % 0 in
18:37 64.6 °F 56.8 °F 29.8 in South 4 mph 11 mph 76 % 0 in
18:42 64.6 °F 56.8 °F 29.9 in SW 4 mph 12 mph 76 % 0 in
18:47 64.2 °F 56.8 °F 29.9 in SW 6 mph 12 mph 77 % 0 in
18:52 64.2 °F 56.8 °F 29.9 in SW 6 mph 9 mph 77 % 0 in
19:02 64 °F 57 °F 29.9 in SSW 4 mph 10 mph 78 % 0 in
19:07 63.9 °F 56.8 °F 29.9 in SSW 4 mph 10 mph 78 % 0 in
19:12 63.9 °F 56.8 °F 29.9 in SW 4 mph 10 mph 78 % 0 in
19:17 64 °F 56.7 °F 29.9 in South 7 mph 13 mph 77 % 0 in
19:22 64.2 °F 56.8 °F 29.9 in SW 11 mph 14 mph 77 % 0 in
19:32 64.6 °F 56.5 °F 29.9 in WSW 7 mph 16 mph 75 % 0 in
19:37 64.6 °F 56.8 °F 29.9 in WSW 2 mph 16 mph 76 % 0 in
19:42 64.6 °F 56.8 °F 29.9 in WSW 6 mph 15 mph 76 % 0 in
19:47 64.6 °F 56.8 °F 29.9 in WSW 3 mph 12 mph 76 % 0 in
19:52 64.6 °F 56.8 °F 29.9 in West 2 mph 15 mph 76 % 0 in
19:57 64.6 °F 56.8 °F 29.9 in SW 8 mph 15 mph 76 % 0 in
20:02 64.2 °F 56.5 °F 29.9 in SW 7 mph 15 mph 76 % 0 in
20:12 63.9 °F 56.5 °F 29.9 in WSW 4 mph 10 mph 77 % 0 in
20:17 63.7 °F 56.7 °F 29.9 in SW 6 mph 10 mph 78 % 0 in
20:22 63.3 °F 56.3 °F 29.9 in SW 5 mph 11 mph 78 % 0 in
20:32 63.7 °F 56.3 °F 29.9 in SW 9 mph 14 mph 77 % 0 in
20:37 63.7 °F 56.3 °F 29.9 in SW 5 mph 14 mph 77 % 0 in
20:42 63.7 °F 56.3 °F 29.9 in SW 7 mph 14 mph 77 % 0 in
20:52 63.9 °F 56.5 °F 29.9 in SW 6 mph 15 mph 77 % 0 in
20:57 63.5 °F 56.5 °F 29.9 in SSW 4 mph 15 mph 78 % 0 in
21:02 63.3 °F 56.3 °F 29.9 in SW 5 mph 13 mph 78 % 0 in
21:07 63.1 °F 56.5 °F 29.9 in SSW 6 mph 11 mph 79 % 0 in
21:12 63 °F 56.3 °F 29.9 in SSW 5 mph 11 mph 79 % 0 in
21:17 62.8 °F 56.5 °F 29.9 in SW 6 mph 11 mph 80 % 0 in
21:22 62.8 °F 56.5 °F 29.9 in SW 6 mph 13 mph 80 % 0 in
21:27 62.8 °F 56.5 °F 29.9 in WSW 9 mph 13 mph 80 % 0 in
21:32 63 °F 56.3 °F 29.9 in SW 7 mph 13 mph 79 % 0 in
21:37 63 °F 56.3 °F 29.9 in SW 6 mph 13 mph 79 % 0 in
21:42 63 °F 56.3 °F 29.9 in SW 7 mph 13 mph 79 % 0 in
21:47 63 °F 56.3 °F 29.9 in SW 10 mph 12 mph 79 % 0 in
21:52 62.8 °F 56.1 °F 29.9 in SW 4 mph 12 mph 79 % 0 in
21:57 62.6 °F 56.3 °F 29.9 in SSW 9 mph 12 mph 80 % 0 in
22:02 62.2 °F 55.9 °F 29.9 in SSW 5 mph 12 mph 80 % 0 in
22:07 62.1 °F 56.1 °F 29.9 in SW 3 mph 10 mph 81 % 0 in
22:12 61.9 °F 55.9 °F 29.9 in SW 3 mph 10 mph 81 % 0 in
22:17 61.7 °F 55.8 °F 29.9 in SW 5 mph 8 mph 81 % 0 in
22:22 61.7 °F 55.8 °F 29.9 in SW 9 mph 9 mph 81 % 0 in
22:27 61.7 °F 55.8 °F 29.9 in SSW 5 mph 11 mph 81 % 0 in
22:32 61.7 °F 55.4 °F 29.9 in SSW 9 mph 11 mph 80 % 0 in
22:37 61.9 °F 55.6 °F 29.9 in SSW 5 mph 12 mph 80 % 0 in
22:42 61.9 °F 55.6 °F 29.9 in SW 3 mph 12 mph 80 % 0 in
22:47 62.1 °F 55.8 °F 29.9 in SSW 7 mph 12 mph 80 % 0 in
22:52 61.9 °F 55.6 °F 29.9 in SW 5 mph 11 mph 80 % 0 in
22:57 61.5 °F 55.2 °F 29.9 in SW 6 mph 11 mph 80 % 0 in
23:02 61.3 °F 55.4 °F 29.9 in SSW 5 mph 11 mph 81 % 0 in
23:07 61.5 °F 55.2 °F 29.9 in SW 13 mph 13 mph 80 % 0 in
23:12 61.9 °F 55.2 °F 29.9 in SW 5 mph 14 mph 79 % 0 in
23:17 61.9 °F 55.2 °F 29.9 in SW 8 mph 14 mph 79 % 0 in
23:22 61.7 °F 55 °F 29.9 in SW 9 mph 14 mph 79 % 0 in
23:27 61.9 °F 55.2 °F 29.9 in SSW 8 mph 15 mph 79 % 0 in
23:37 61.9 °F 55.2 °F 29.9 in SSW 6 mph 16 mph 79 % 0 in
23:42 61.5 °F 55.2 °F 29.9 in SW 9 mph 14 mph 80 % 0 in
23:47 61.3 °F 55 °F 29.9 in South 9 mph 12 mph 80 % 0 in
23:52 61.2 °F 55.2 °F 29.9 in SW 7 mph 14 mph 81 % 0 in
23:57 61.2 °F 55.2 °F 29.9 in SSW 7 mph 14 mph 81 % 0 in
Meteo18
Compliments of Weather Underground - 4 mb

Script developed by  Jim McMurry - jmcmurry@mwt.net Adapted for the template by  Wim van der Kuil - Leuven-Template.eu

You find our weather info also at:

European Weather Network

Weather Underground

Equipment we use:

Weather-station
Davis Vue

Weather-program
Meteohub

Weather-server
Raspberry PI 2 B+

Provider
1 and 1

Davis Vue

Meteohub

Raspberry PI 2 B+

1 and 1